createdAt,value
2022-07-29T04:01:21.288Z,15.80
2022-07-29T04:05:33.103Z,15.78
2022-07-29T04:09:45.130Z,15.77
2022-07-29T04:13:57.073Z,15.80
2022-07-29T04:18:09.184Z,15.77
2022-07-29T04:22:21.156Z,15.78
2022-07-29T04:26:35.824Z,15.74
2022-07-29T04:30:47.789Z,15.75
2022-07-29T04:34:59.802Z,15.71
2022-07-29T04:39:17.071Z,15.88
2022-07-29T04:43:36.648Z,15.90
2022-07-29T04:47:48.774Z,15.95
2022-07-29T04:52:00.569Z,15.98
2022-07-29T04:56:13.263Z,16.10
2022-07-29T05:00:29.191Z,16.24
2022-07-29T05:04:45.393Z,16.26
2022-07-29T05:08:57.130Z,16.40
2022-07-29T05:13:09.579Z,16.63
2022-07-29T05:17:21.763Z,16.79
2022-07-29T05:21:34.449Z,16.85
2022-07-29T05:25:47.720Z,17.11
2022-07-29T05:30:00.298Z,17.18
2022-07-29T05:34:14.278Z,17.23
2022-07-29T05:38:31.916Z,17.27
2022-07-29T05:42:57.129Z,17.53
2022-07-29T05:47:17.778Z,18.21
2022-07-29T05:51:37.369Z,22.10
2022-07-29T05:55:55.156Z,26.38
2022-07-29T06:00:08.205Z,27.56
2022-07-29T06:09:23.909Z,31.83
2022-07-29T06:13:35.958Z,33.14
2022-07-29T06:18:00.169Z,31.35
2022-07-29T06:22:12.778Z,31.46
2022-07-29T06:26:30.749Z,31.76
2022-07-29T06:30:49.830Z,31.88
2022-07-29T06:35:33.007Z,28.26
2022-07-29T06:39:35.272Z,25.82
2022-07-29T06:43:51.880Z,25.78
2022-07-29T06:48:05.902Z,26.81
2022-07-29T06:52:17.432Z,27.24
2022-07-29T06:56:28.979Z,27.56
2022-07-29T07:00:40.686Z,26.32
2022-07-29T07:04:52.495Z,25.40
2022-07-29T07:09:04.531Z,24.49
2022-07-29T07:13:18.067Z,23.96
2022-07-29T07:17:29.628Z,23.44
2022-07-29T07:21:41.420Z,23.25
2022-07-29T07:25:53.197Z,22.98
2022-07-29T07:30:06.744Z,23.41
2022-07-29T07:34:25.709Z,24.13
2022-07-29T07:38:41.306Z,25.15
2022-07-29T07:42:52.877Z,25.71
2022-07-29T07:47:12.212Z,26.01
2022-07-29T07:51:24.143Z,26.44
2022-07-29T07:56:08.181Z,26.80
2022-07-29T08:00:14.552Z,26.73
2022-07-29T08:04:28.742Z,26.72
2022-07-29T08:08:40.793Z,26.62
2022-07-29T08:12:52.327Z,26.93
2022-07-29T08:17:03.925Z,26.86
2022-07-29T08:21:16.495Z,26.95
2022-07-29T08:25:28.198Z,27.01
2022-07-29T08:29:40.456Z,27.14
2022-07-29T08:33:51.990Z,27.16
2022-07-29T08:38:04.340Z,27.16
2022-07-29T08:42:17.756Z,26.99
2022-07-29T08:46:29.331Z,26.77
2022-07-29T08:50:42.020Z,26.94
2022-07-29T08:54:58.117Z,26.81
2022-07-29T08:59:10.718Z,26.94
2022-07-29T09:03:28.285Z,26.80
2022-07-29T09:07:40.626Z,27.03
2022-07-29T09:11:54.346Z,26.98
2022-07-29T09:16:09.370Z,26.97
2022-07-29T09:20:25.631Z,27.07
2022-07-29T09:24:48.366Z,27.12
2022-07-29T09:29:00.636Z,27.29
2022-07-29T09:33:12.183Z,27.71
2022-07-29T09:37:30.050Z,27.86
2022-07-29T09:41:50.067Z,27.69
2022-07-29T09:46:12.805Z,27.77
2022-07-29T09:50:38.910Z,27.72
2022-07-29T09:54:51.156Z,27.55
2022-07-29T09:59:10.117Z,27.51
2022-07-29T10:03:23.048Z,27.56
2022-07-29T10:07:53.343Z,27.63
2022-07-29T10:12:07.935Z,27.69
2022-07-29T10:16:19.545Z,27.79
2022-07-29T10:20:31.547Z,27.98
2022-07-29T10:24:43.116Z,28.12
2022-07-29T10:28:54.627Z,28.14
2022-07-29T10:33:18.219Z,28.22
2022-07-29T10:37:57.776Z,28.05
2022-07-29T10:42:33.442Z,27.88
2022-07-29T10:46:47.048Z,28.05
2022-07-29T10:51:04.937Z,28.06
2022-07-29T10:55:42.989Z,27.68
2022-07-29T11:00:10.061Z,27.62
2022-07-29T11:04:47.056Z,27.87
2022-07-29T11:09:25.716Z,28.07
2022-07-29T11:13:55.982Z,28.07
2022-07-29T11:18:14.982Z,28.30
2022-07-29T11:22:45.927Z,28.65
2022-07-29T11:27:13.307Z,28.81
2022-07-29T11:31:44.392Z,29.18
2022-07-29T11:36:16.766Z,29.06
2022-07-29T11:40:28.700Z,28.73
2022-07-29T11:45:42.916Z,28.75
2022-07-29T11:49:45.665Z,28.76
2022-07-29T11:54:05.217Z,28.84
2022-07-29T11:58:25.183Z,28.67
2022-07-29T12:02:44.020Z,28.48
2022-07-29T12:07:00.689Z,28.47
2022-07-29T12:11:21.282Z,28.48
2022-07-29T12:15:46.361Z,28.35
2022-07-29T12:20:00.728Z,28.15
2022-07-29T12:24:14.771Z,28.23
2022-07-29T12:28:27.842Z,28.29
2022-07-29T12:32:47.973Z,28.20
2022-07-29T12:37:00.105Z,28.02
2022-07-29T12:41:11.901Z,27.86
2022-07-29T12:45:32.594Z,28.01
2022-07-29T12:49:45.473Z,28.13
2022-07-29T12:54:08.967Z,28.25
2022-07-29T12:58:36.151Z,28.22
2022-07-29T13:02:56.669Z,28.18
2022-07-29T13:07:10.434Z,28.16
2022-07-29T13:11:44.124Z,28.19
2022-07-29T13:16:08.811Z,28.16
2022-07-29T13:20:25.739Z,28.36
2022-07-29T13:24:55.527Z,28.48
2022-07-29T13:29:07.100Z,28.46
2022-07-29T13:33:18.638Z,28.87
2022-07-29T13:37:30.762Z,29.36
2022-07-29T13:41:42.547Z,29.60
2022-07-29T13:45:55.061Z,29.71
2022-07-29T13:50:08.744Z,30.05
2022-07-29T13:54:20.732Z,29.98
2022-07-29T13:58:34.135Z,30.00
2022-07-29T14:02:45.801Z,29.89
2022-07-29T14:06:57.369Z,30.03
2022-07-29T14:11:09.127Z,29.95
2022-07-29T14:15:21.409Z,30.03
2022-07-29T14:19:36.237Z,29.95
2022-07-29T14:23:48.610Z,29.47
2022-07-29T14:28:00.794Z,29.09
2022-07-29T14:32:12.473Z,29.54
2022-07-29T14:36:24.543Z,29.85
2022-07-29T14:40:36.097Z,29.73
2022-07-29T14:44:48.740Z,29.92
2022-07-29T14:49:00.983Z,30.03
2022-07-29T14:53:15.491Z,30.09
2022-07-29T14:57:27.051Z,30.23
2022-07-29T15:01:38.668Z,30.41
2022-07-29T15:05:50.304Z,30.34
2022-07-29T15:10:01.849Z,30.33
2022-07-29T15:14:13.935Z,30.08
2022-07-29T15:18:25.916Z,30.09
2022-07-29T15:22:39.010Z,30.13
2022-07-29T15:26:50.640Z,30.02
2022-07-29T15:31:02.264Z,29.82
2022-07-29T15:35:13.838Z,29.77
2022-07-29T15:39:26.599Z,29.75
2022-07-29T15:43:38.273Z,29.80
2022-07-29T15:47:49.798Z,29.57
2022-07-29T15:52:09.939Z,28.95
2022-07-29T15:56:24.499Z,28.55
2022-07-29T16:00:36.032Z,28.38
2022-07-29T16:04:47.957Z,28.09
2022-07-29T16:09:00.469Z,27.88
2022-07-29T16:13:12.154Z,27.70
2022-07-29T16:17:29.432Z,27.60
2022-07-29T16:21:41.032Z,27.54
2022-07-29T16:26:01.044Z,27.61
2022-07-29T16:30:13.747Z,27.75
2022-07-29T16:34:25.260Z,28.13
2022-07-29T16:38:38.116Z,28.33
2022-07-29T16:42:58.919Z,28.56
2022-07-29T16:47:10.456Z,28.68
2022-07-29T16:51:23.113Z,28.74
2022-07-29T16:55:34.642Z,28.71
2022-07-29T16:59:46.189Z,28.67
2022-07-29T17:04:06.461Z,28.48
2022-07-29T17:08:17.990Z,28.57
2022-07-29T17:12:29.605Z,28.52
2022-07-29T17:16:41.183Z,28.41
2022-07-29T17:20:52.767Z,28.03
2022-07-29T17:25:05.330Z,28.00
2022-07-29T17:29:17.203Z,27.93
2022-07-29T17:33:28.775Z,27.86
2022-07-29T17:37:40.353Z,27.93
2022-07-29T17:41:52.188Z,27.79
2022-07-29T17:46:03.907Z,27.59
2022-07-29T17:50:15.480Z,27.47
2022-07-29T17:54:27.302Z,27.37
2022-07-29T17:58:39.443Z,27.24
2022-07-29T18:02:51.098Z,27.06
2022-07-29T18:07:02.736Z,26.89
2022-07-29T18:11:15.072Z,26.72
2022-07-29T18:15:26.746Z,26.61
2022-07-29T18:19:38.278Z,26.47
2022-07-29T18:23:52.004Z,26.36
2022-07-29T18:28:04.525Z,26.28
2022-07-29T18:32:16.060Z,26.20
2022-07-29T18:36:27.599Z,26.10
2022-07-29T18:40:42.100Z,26.06
2022-07-29T18:44:54.895Z,26.03
2022-07-29T18:49:06.498Z,25.93
2022-07-29T18:53:18.142Z,25.77
2022-07-29T18:57:55.132Z,25.64
2022-07-29T19:02:02.224Z,25.53
2022-07-29T19:06:13.941Z,25.38
2022-07-29T19:10:25.470Z,25.22
2022-07-29T19:14:37.482Z,25.12
2022-07-29T19:18:49.060Z,24.98
2022-07-29T19:23:00.617Z,24.88
2022-07-29T19:27:12.200Z,24.80
2022-07-29T19:31:23.872Z,24.73
2022-07-29T19:35:35.816Z,24.64
2022-07-29T19:39:47.377Z,24.54
2022-07-29T19:43:58.986Z,24.44
2022-07-29T19:48:10.477Z,24.40
2022-07-29T19:52:22.026Z,24.29
2022-07-29T19:56:33.591Z,24.15
2022-07-29T20:00:45.893Z,24.03
2022-07-29T20:04:57.441Z,23.94
2022-07-29T20:09:16.754Z,23.81
2022-07-29T20:13:33.573Z,23.77
2022-07-29T20:17:45.244Z,23.58
2022-07-29T20:21:56.884Z,23.43
2022-07-29T20:26:09.743Z,23.30
2022-07-29T20:30:22.622Z,23.10
2022-07-29T20:34:34.337Z,22.91
2022-07-29T20:38:45.844Z,22.81
2022-07-29T20:42:57.456Z,22.61
2022-07-29T20:47:09.770Z,22.48
2022-07-29T20:51:21.760Z,22.36
2022-07-29T20:55:33.506Z,22.22
2022-07-29T20:59:45.850Z,22.16
2022-07-29T21:03:57.494Z,21.98
2022-07-29T21:08:09.099Z,21.95
2022-07-29T21:12:20.653Z,21.82
2022-07-29T21:16:33.729Z,21.60
2022-07-29T21:20:45.237Z,21.49
2022-07-29T21:24:56.934Z,21.41
2022-07-29T21:29:08.455Z,21.23
